createdAt,value
2022-12-03T00:00:58.843Z,97973.00
2022-12-03T00:03:30.862Z,97965.88
2022-12-03T00:05:59.622Z,97967.78
2022-12-03T00:08:28.388Z,97963.97
2022-12-03T00:10:57.049Z,97958.88
2022-12-03T00:13:26.976Z,97966.91
2022-12-03T00:15:55.685Z,97956.78
2022-12-03T00:18:24.417Z,97951.25
2022-12-03T00:20:54.487Z,97953.69
2022-12-03T00:23:25.958Z,97954.31
2022-12-03T00:25:55.202Z,97959.38
2022-12-03T00:28:42.545Z,97958.31
2022-12-03T00:31:11.309Z,97956.34
2022-12-03T00:33:40.000Z,97949.97
2022-12-03T00:36:10.567Z,97949.41
2022-12-03T00:38:39.549Z,97950.72
2022-12-03T00:41:08.178Z,97950.31
2022-12-03T00:43:36.878Z,97949.88
2022-12-03T00:46:05.596Z,97945.06
2022-12-03T00:48:34.298Z,97946.94
2022-12-03T00:51:02.953Z,97944.47
2022-12-03T00:53:33.010Z,97948.09
2022-12-03T00:56:02.947Z,97945.38
2022-12-03T00:58:31.906Z,97944.31
2022-12-03T01:01:00.614Z,97946.88
2022-12-03T01:03:31.709Z,97944.47
2022-12-03T01:06:00.733Z,97939.03
2022-12-03T01:08:30.460Z,97938.06
2022-12-03T01:11:01.597Z,97940.63
2022-12-03T01:13:30.267Z,97933.34
2022-12-03T01:15:59.079Z,97944.72
2022-12-03T01:18:28.836Z,97944.66
2022-12-03T01:20:58.526Z,97941.84
2022-12-03T01:23:27.235Z,97940.41
2022-12-03T01:25:55.943Z,97950.38
2022-12-03T01:28:27.231Z,97950.63
2022-12-03T01:31:09.618Z,97945.75
2022-12-03T01:33:39.379Z,97945.69
2022-12-03T01:36:08.557Z,97953.41
2022-12-03T01:38:37.269Z,97940.09
2022-12-03T01:41:11.538Z,97955.38
2022-12-03T01:43:42.320Z,97952.09
2022-12-03T01:46:11.099Z,97951.38
2022-12-03T01:48:40.130Z,97946.22
2022-12-03T01:51:08.885Z,97952.91
2022-12-03T01:53:37.893Z,97951.59
2022-12-03T01:56:08.659Z,97948.78
2022-12-03T01:58:37.286Z,97943.97
2022-12-03T02:01:09.029Z,97945.22
2022-12-03T02:03:37.761Z,97944.19
2022-12-03T02:06:07.353Z,97938.69
2022-12-03T02:08:36.924Z,97945.56
2022-12-03T02:11:07.217Z,97937.56
2022-12-03T02:13:36.180Z,97936.50
2022-12-03T02:16:06.766Z,97943.78
2022-12-03T02:18:35.522Z,97935.91
2022-12-03T02:21:10.368Z,97931.50
2022-12-03T02:23:42.557Z,97939.81
2022-12-03T02:26:12.618Z,97935.97
2022-12-03T02:28:41.971Z,97938.41
2022-12-03T02:31:10.732Z,97941.19
2022-12-03T02:33:39.434Z,97937.59
2022-12-03T02:36:08.363Z,97928.41
2022-12-03T02:38:37.320Z,97928.47
2022-12-03T02:41:07.413Z,97927.94
2022-12-03T02:43:36.477Z,97931.50
2022-12-03T02:46:05.257Z,97931.28
2022-12-03T02:48:34.975Z,97935.19
2022-12-03T02:51:05.496Z,97927.78
2022-12-03T02:53:36.406Z,97929.06
2022-12-03T02:56:05.091Z,97924.44
2022-12-03T02:58:36.624Z,97926.97
2022-12-03T03:01:06.891Z,97927.66
2022-12-03T03:03:35.687Z,97918.88
2022-12-03T03:06:04.329Z,97919.91
2022-12-03T03:08:33.149Z,97920.59
2022-12-03T03:11:02.060Z,97915.38
2022-12-03T03:13:31.069Z,97919.03
2022-12-03T03:16:00.084Z,97923.97
2022-12-03T03:18:30.683Z,97921.00
2022-12-03T03:20:59.433Z,97911.56
2022-12-03T03:23:28.289Z,97908.31
2022-12-03T03:25:58.841Z,97919.16
2022-12-03T03:28:27.486Z,97922.53
2022-12-03T03:30:56.221Z,97919.63
2022-12-03T03:33:24.922Z,97918.38
2022-12-03T03:35:55.539Z,97922.31
2022-12-03T03:38:24.259Z,97920.94
2022-12-03T03:40:53.074Z,97919.09
2022-12-03T03:43:22.301Z,97910.72
2022-12-03T03:45:51.418Z,97913.75
2022-12-03T03:48:20.240Z,97916.91
2022-12-03T03:50:49.979Z,97911.81
2022-12-03T03:53:20.396Z,97916.41
2022-12-03T03:55:49.053Z,97915.16
2022-12-03T03:58:17.744Z,97912.81
2022-12-03T04:00:46.674Z,97912.16
2022-12-03T04:03:15.566Z,97898.63
2022-12-03T04:05:44.244Z,97897.81
2022-12-03T04:08:14.275Z,97901.56
2022-12-03T04:10:58.106Z,97906.41
2022-12-03T04:13:27.265Z,97906.75
2022-12-03T04:15:55.997Z,97901.22
2022-12-03T04:18:38.316Z,97904.72
2022-12-03T04:21:21.156Z,97908.22
2022-12-03T04:23:49.794Z,97906.09
2022-12-03T04:26:33.827Z,97906.47
2022-12-03T04:29:03.487Z,97904.97
2022-12-03T04:31:45.891Z,97905.75
2022-12-03T04:34:28.916Z,97903.03
2022-12-03T04:36:57.632Z,97896.41
2022-12-03T04:39:26.404Z,97891.69
2022-12-03T04:41:57.233Z,97887.38
2022-12-03T04:44:37.225Z,97881.41
2022-12-03T04:47:08.084Z,97876.81
2022-12-03T04:49:37.822Z,97876.41
2022-12-03T04:52:07.862Z,97878.13
2022-12-03T04:54:36.543Z,97877.91
2022-12-03T04:57:06.971Z,97883.88
2022-12-03T04:59:35.667Z,97873.97
2022-12-03T05:02:04.662Z,97875.50
2022-12-03T05:04:33.455Z,97870.97
2022-12-03T05:07:02.486Z,97868.63
2022-12-03T05:09:32.236Z,97862.31
2022-12-03T05:12:00.929Z,97873.91
2022-12-03T05:14:31.066Z,97864.41
2022-12-03T05:16:59.802Z,97859.72
2022-12-03T05:19:42.232Z,97866.97
2022-12-03T05:22:11.233Z,97861.69
2022-12-03T05:24:39.977Z,97868.97
2022-12-03T05:27:08.673Z,97865.63
2022-12-03T05:29:39.707Z,97863.41
2022-12-03T05:32:10.411Z,97870.97
2022-12-03T05:34:39.491Z,97868.22
2022-12-03T05:37:09.576Z,97868.38
2022-12-03T05:39:40.644Z,97860.31
2022-12-03T05:42:24.583Z,97865.13
2022-12-03T05:44:54.942Z,97861.00
2022-12-03T05:47:23.931Z,97867.13
2022-12-03T05:49:52.934Z,97856.63
2022-12-03T05:52:21.655Z,97856.50
2022-12-03T05:54:50.486Z,97862.78
2022-12-03T05:57:19.291Z,97862.31
2022-12-03T05:59:48.034Z,97861.75
2022-12-03T06:02:18.765Z,97861.41
2022-12-03T06:04:47.975Z,97860.09
2022-12-03T06:07:16.886Z,97869.19
2022-12-03T06:09:45.630Z,97870.63
2022-12-03T06:12:14.286Z,97861.34
2022-12-03T06:14:43.012Z,97870.75
2022-12-03T06:17:11.841Z,97874.66
2022-12-03T06:19:42.185Z,97870.13
2022-12-03T06:22:11.644Z,97863.25
2022-12-03T06:24:40.997Z,97872.22
2022-12-03T06:27:10.074Z,97868.66
2022-12-03T06:29:39.092Z,97869.25
2022-12-03T06:32:08.035Z,97864.31
2022-12-03T06:34:36.890Z,97863.13
2022-12-03T06:37:07.317Z,97865.03
2022-12-03T06:39:36.024Z,97869.44
2022-12-03T06:42:04.780Z,97863.47
2022-12-03T06:44:33.443Z,97863.50
2022-12-03T06:47:03.476Z,97874.25
2022-12-03T06:49:32.550Z,97867.88
2022-12-03T06:52:01.271Z,97865.69
2022-12-03T06:54:31.555Z,97861.94
2022-12-03T06:57:00.596Z,97868.66
2022-12-03T06:59:29.613Z,97874.44
2022-12-03T07:01:58.643Z,97867.00
2022-12-03T07:04:27.365Z,97871.47
2022-12-03T07:06:56.046Z,97877.06
2022-12-03T07:09:24.742Z,97874.47
2022-12-03T07:11:54.771Z,97869.63
2022-12-03T07:14:23.788Z,97873.72
2022-12-03T07:16:52.460Z,97869.50
2022-12-03T07:19:21.429Z,97876.59
2022-12-03T07:21:59.199Z,97882.44
2022-12-03T07:24:27.920Z,97871.25
2022-12-03T07:26:59.009Z,97872.53
2022-12-03T07:29:27.718Z,97877.81
2022-12-03T07:31:57.008Z,97881.25
2022-12-03T07:34:26.486Z,97883.25
2022-12-03T07:36:56.197Z,97870.50
2022-12-03T07:39:26.211Z,97867.44
2022-12-03T07:41:54.917Z,97873.25
2022-12-03T07:44:25.093Z,97861.94
2022-12-03T07:46:53.798Z,97871.38
2022-12-03T07:49:22.465Z,97871.75
2022-12-03T07:51:54.873Z,97868.50
2022-12-03T07:54:23.508Z,97865.25
2022-12-03T07:56:56.555Z,97870.22
2022-12-03T07:59:29.985Z,97872.38
2022-12-03T08:01:58.770Z,97879.66
2022-12-03T08:04:27.458Z,97869.84
2022-12-03T08:06:57.868Z,97866.91
2022-12-03T08:09:26.859Z,97870.75
2022-12-03T08:11:55.578Z,97870.00
2022-12-03T08:14:24.894Z,97867.19
2022-12-03T08:16:55.043Z,97863.16
2022-12-03T08:19:23.767Z,97860.16
2022-12-03T08:21:57.981Z,97861.59
2022-12-03T08:24:30.084Z,97852.34
2022-12-03T08:27:00.236Z,97859.50
2022-12-03T08:29:29.272Z,97863.72
2022-12-03T08:31:59.427Z,97865.63
2022-12-03T08:34:31.943Z,97862.44
2022-12-03T08:37:02.962Z,97856.25
2022-12-03T08:39:33.829Z,97853.75
2022-12-03T08:42:24.173Z,97848.72
2022-12-03T08:47:42.146Z,97844.84
2022-12-03T08:50:24.045Z,97848.94
2022-12-03T08:52:52.769Z,97853.41
2022-12-03T08:55:34.066Z,97851.75
2022-12-03T08:58:02.702Z,97856.97
2022-12-03T09:00:34.282Z,97860.81
2022-12-03T09:03:04.400Z,97853.41
2022-12-03T09:05:33.737Z,97851.25
2022-12-03T09:08:02.585Z,97853.06
2022-12-03T09:10:31.662Z,97847.22
2022-12-03T09:13:00.396Z,97849.88
2022-12-03T09:15:29.179Z,97855.47
2022-12-03T09:17:57.830Z,97862.22
2022-12-03T09:20:32.726Z,97853.53
2022-12-03T09:23:06.223Z,97855.00
2022-12-03T09:25:34.971Z,97855.00
2022-12-03T09:28:03.655Z,97851.75
2022-12-03T09:30:32.496Z,97855.00
2022-12-03T09:33:02.100Z,97855.69
2022-12-03T09:35:32.160Z,97858.88
2022-12-03T09:38:01.289Z,97864.25
2022-12-03T09:40:30.378Z,97856.34
2022-12-03T09:42:59.648Z,97859.41
2022-12-03T09:45:28.369Z,97862.84
2022-12-03T09:47:57.099Z,97851.13
2022-12-03T09:50:26.972Z,97846.56
2022-12-03T09:52:58.364Z,97852.97
2022-12-03T09:58:16.892Z,97838.63
2022-12-03T10:00:48.120Z,97837.81
2022-12-03T10:03:17.984Z,97833.78
2022-12-03T10:05:50.081Z,97835.06
2022-12-03T10:08:22.511Z,97823.47
2022-12-03T10:10:51.954Z,97827.44
2022-12-03T10:13:26.052Z,97822.88
2022-12-03T10:15:56.051Z,97825.47
2022-12-03T10:18:27.685Z,97817.75
2022-12-03T10:20:58.572Z,97821.25
2022-12-03T10:23:32.381Z,97824.03
2022-12-03T10:26:03.181Z,97819.69
2022-12-03T10:28:34.490Z,97815.84
2022-12-03T10:31:04.225Z,97813.78
2022-12-03T10:33:34.443Z,97809.19
2022-12-03T10:36:16.753Z,97803.25
2022-12-03T10:38:48.933Z,97799.47
2022-12-03T10:41:24.264Z,97800.88
2022-12-03T10:43:55.309Z,97803.06
2022-12-03T10:46:24.395Z,97790.75
2022-12-03T10:49:13.050Z,97786.41
2022-12-03T10:51:42.337Z,97784.66
2022-12-03T10:54:17.573Z,97779.16
2022-12-03T10:56:47.154Z,97773.63
2022-12-03T10:59:26.847Z,97770.47
2022-12-03T11:01:55.847Z,97766.56
2022-12-03T11:04:25.533Z,97759.81
2022-12-03T11:06:54.469Z,97758.16
2022-12-03T11:09:28.671Z,97753.81
2022-12-03T11:11:57.514Z,97759.47
2022-12-03T11:15:06.688Z,97754.13
2022-12-03T11:17:43.369Z,97760.66
2022-12-03T11:20:20.950Z,97757.56
2022-12-03T11:22:51.242Z,97757.94
2022-12-03T11:25:43.543Z,97757.09
2022-12-03T11:28:37.937Z,97756.38
2022-12-03T11:31:28.653Z,97749.16
2022-12-03T11:34:18.252Z,97756.16
2022-12-03T11:37:16.697Z,97755.06
2022-12-03T11:40:04.981Z,97751.00
2022-12-03T11:42:42.594Z,97744.09
2022-12-03T11:45:17.812Z,97745.13
2022-12-03T11:47:47.702Z,97742.56
2022-12-03T11:50:22.560Z,97734.91
2022-12-03T11:52:57.986Z,97733.28
2022-12-03T11:55:30.008Z,97729.53
2022-12-03T11:58:02.549Z,97734.84
2022-12-03T12:00:33.811Z,97734.16
2022-12-03T12:03:05.264Z,97719.44
2022-12-03T12:05:35.942Z,97723.28
2022-12-03T12:08:05.186Z,97717.06
2022-12-03T12:10:41.696Z,97707.63
2022-12-03T12:13:32.067Z,97700.78
2022-12-03T12:16:08.482Z,97709.09
2022-12-03T12:18:39.936Z,97708.38
2022-12-03T12:21:38.009Z,97698.28
2022-12-03T12:24:30.776Z,97696.09
2022-12-03T12:27:02.111Z,97697.88
2022-12-03T12:29:32.911Z,97694.47
2022-12-03T12:32:15.289Z,97692.66
2022-12-03T12:34:45.684Z,97692.59
2022-12-03T12:37:15.856Z,97685.13
2022-12-03T12:39:44.675Z,97686.63
2022-12-03T12:42:27.408Z,97683.09
2022-12-03T12:44:59.585Z,97683.94
2022-12-03T12:47:30.292Z,97676.72
2022-12-03T12:49:59.720Z,97675.78
2022-12-03T12:52:28.950Z,97675.72
2022-12-03T12:55:04.332Z,97678.34
2022-12-03T12:57:33.758Z,97672.69
2022-12-03T13:00:05.328Z,97669.13
2022-12-03T13:02:45.850Z,97676.19
2022-12-03T13:05:17.720Z,97674.13
2022-12-03T13:07:48.402Z,97674.53
2022-12-03T13:10:31.653Z,97670.78
2022-12-03T13:13:02.863Z,97666.50
2022-12-03T13:15:40.343Z,97666.91
2022-12-03T13:18:22.774Z,97660.75
2022-12-03T13:23:37.423Z,97657.38
2022-12-03T13:26:30.356Z,97661.81
2022-12-03T13:29:04.491Z,97665.31
2022-12-03T13:31:41.885Z,97665.13
2022-12-03T13:34:14.906Z,97657.53
2022-12-03T13:36:44.390Z,97650.56
2022-12-03T13:39:18.614Z,97655.22
2022-12-03T13:42:00.994Z,97651.16
2022-12-03T13:44:30.764Z,97640.72
2022-12-03T13:47:01.931Z,97648.22
2022-12-03T13:49:46.791Z,97643.88
2022-12-03T13:52:17.461Z,97649.66
2022-12-03T13:54:47.199Z,97638.94
2022-12-03T13:57:16.560Z,97632.16
2022-12-03T13:59:45.654Z,97626.75
2022-12-03T14:02:17.039Z,97630.94
2022-12-03T14:04:46.381Z,97629.34
2022-12-03T14:07:16.448Z,97624.81
2022-12-03T14:09:46.068Z,97623.81
2022-12-03T14:12:27.926Z,97626.63
2022-12-03T14:14:57.474Z,97622.25
2022-12-03T14:17:27.909Z,97621.09
2022-12-03T14:19:57.109Z,97628.72
2022-12-03T14:22:28.163Z,97621.97
2022-12-03T14:24:56.871Z,97629.19
2022-12-03T14:27:26.254Z,97625.53
2022-12-03T14:30:17.409Z,97626.59
2022-12-03T14:32:49.207Z,97628.28
2022-12-03T14:35:18.089Z,97626.34
2022-12-03T14:37:49.145Z,97627.56
2022-12-03T14:40:21.783Z,97624.44
2022-12-03T14:42:50.891Z,97630.34
2022-12-03T14:45:23.647Z,97625.91
2022-12-03T14:47:54.725Z,97622.91
2022-12-03T14:50:25.670Z,97626.25
2022-12-03T14:52:56.253Z,97628.41
2022-12-03T14:55:26.115Z,97629.09
2022-12-03T14:57:55.101Z,97630.84
2022-12-03T15:00:24.449Z,97628.09
2022-12-03T15:03:09.611Z,97623.13
2022-12-03T15:05:38.410Z,97626.13
2022-12-03T15:08:09.674Z,97632.38
2022-12-03T15:10:39.644Z,97625.66
2022-12-03T15:13:09.462Z,97624.94
2022-12-03T15:15:38.680Z,97628.66
2022-12-03T15:18:10.873Z,97622.16
2022-12-03T15:20:42.171Z,97624.56
2022-12-03T15:23:14.274Z,97627.09
2022-12-03T15:25:45.241Z,97631.56
2022-12-03T15:28:14.021Z,97631.03
2022-12-03T15:30:46.607Z,97632.56
2022-12-03T15:33:17.748Z,97631.91
2022-12-03T15:35:46.944Z,97635.63
2022-12-03T15:38:17.065Z,97632.19
2022-12-03T15:40:46.051Z,97632.44
2022-12-03T15:43:15.084Z,97630.25
2022-12-03T15:45:45.756Z,97633.75
2022-12-03T15:48:15.198Z,97622.78
2022-12-03T15:50:47.013Z,97626.91
2022-12-03T15:53:18.257Z,97623.91
2022-12-03T15:55:47.226Z,97622.06
2022-12-03T15:58:16.756Z,97622.03
2022-12-03T16:00:46.706Z,97617.59
2022-12-03T16:03:16.278Z,97619.91
2022-12-03T16:05:47.037Z,97619.69
2022-12-03T16:08:16.318Z,97618.38
2022-12-03T16:10:45.140Z,97620.66
2022-12-03T16:13:13.886Z,97628.41
2022-12-03T16:15:48.383Z,97620.66
2022-12-03T16:18:17.801Z,97623.13
2022-12-03T16:20:48.427Z,97630.75
2022-12-03T16:23:17.949Z,97628.72
2022-12-03T16:25:48.250Z,97637.38
2022-12-03T16:28:18.320Z,97630.50
2022-12-03T16:30:47.532Z,97624.63
2022-12-03T16:33:20.143Z,97630.75
2022-12-03T16:35:54.157Z,97630.91
2022-12-03T16:38:23.499Z,97632.03
2022-12-03T16:40:53.391Z,97632.69
2022-12-03T16:43:24.956Z,97628.53
2022-12-03T16:46:21.485Z,97625.69
2022-12-03T16:48:51.869Z,97635.19
2022-12-03T16:51:25.168Z,97634.72
2022-12-03T16:54:24.909Z,97631.78
2022-12-03T16:56:53.881Z,97630.38
2022-12-03T16:59:23.320Z,97629.84
2022-12-03T17:01:53.028Z,97629.13
2022-12-03T17:04:41.916Z,97627.34
2022-12-03T17:07:14.240Z,97633.47
2022-12-03T17:09:43.976Z,97623.84
2022-12-03T17:12:14.141Z,97627.56
2022-12-03T17:15:01.369Z,97621.53
2022-12-03T17:17:30.453Z,97624.25
2022-12-03T17:19:59.294Z,97631.69
2022-12-03T17:22:31.422Z,97631.13
2022-12-03T17:25:00.155Z,97629.81
2022-12-03T17:27:30.070Z,97626.50
2022-12-03T17:30:03.031Z,97619.09
2022-12-03T17:32:32.492Z,97626.94
2022-12-03T17:35:01.800Z,97623.84
2022-12-03T17:37:32.021Z,97624.38
2022-12-03T17:40:03.068Z,97618.16
2022-12-03T17:42:34.739Z,97614.34
2022-12-03T17:45:04.157Z,97611.88
2022-12-03T17:47:35.947Z,97616.00
2022-12-03T17:50:07.398Z,97607.22
2022-12-03T17:52:38.705Z,97604.44
2022-12-03T17:55:12.127Z,97604.91
2022-12-03T17:57:42.362Z,97605.03
2022-12-03T18:00:11.884Z,97600.63
2022-12-03T18:02:41.067Z,97600.00
2022-12-03T18:05:10.558Z,97606.69
2022-12-03T18:07:46.512Z,97596.03
2022-12-03T18:10:16.905Z,97605.03
2022-12-03T18:12:45.612Z,97587.78
2022-12-03T18:15:22.324Z,97594.94
2022-12-03T18:17:53.227Z,97599.91
2022-12-03T18:20:22.072Z,97599.44
2022-12-03T18:22:52.280Z,97598.69
2022-12-03T18:25:21.240Z,97594.41
2022-12-03T18:27:50.772Z,97596.44
2022-12-03T18:30:19.752Z,97593.84
2022-12-03T18:32:48.884Z,97591.50
2022-12-03T18:35:18.303Z,97582.84
2022-12-03T18:40:39.942Z,97586.41
2022-12-03T18:43:12.236Z,97587.09
2022-12-03T18:45:41.363Z,97584.63
2022-12-03T18:48:12.679Z,97584.38
2022-12-03T18:50:41.523Z,97584.69
2022-12-03T18:53:13.504Z,97582.44
2022-12-03T18:55:44.007Z,97577.78
2022-12-03T18:58:13.415Z,97573.03
2022-12-03T19:00:44.007Z,97578.50
2022-12-03T19:03:15.158Z,97576.59
2022-12-03T19:05:44.433Z,97578.69
2022-12-03T19:08:15.452Z,97574.91
2022-12-03T19:10:48.101Z,97572.34
2022-12-03T19:13:19.688Z,97567.47
2022-12-03T19:15:52.094Z,97571.63
2022-12-03T19:18:40.555Z,97573.22
2022-12-03T19:21:09.709Z,97579.56
2022-12-03T19:23:38.812Z,97577.16
2022-12-03T19:26:09.976Z,97573.59
2022-12-03T19:28:38.945Z,97575.44
2022-12-03T19:31:08.507Z,97573.50
2022-12-03T19:33:55.184Z,97579.56
2022-12-03T19:36:25.055Z,97585.69
2022-12-03T19:38:57.195Z,97581.66
2022-12-03T19:41:28.435Z,97579.00
2022-12-03T19:43:57.708Z,97585.63
2022-12-03T19:46:27.213Z,97580.41
2022-12-03T19:48:56.270Z,97580.59
2022-12-03T19:51:40.568Z,97589.81
2022-12-03T19:54:10.080Z,97588.97
2022-12-03T19:56:40.305Z,97590.34
2022-12-03T19:59:09.244Z,97587.00
2022-12-03T20:01:40.957Z,97585.22
2022-12-03T20:04:11.987Z,97576.50
2022-12-03T20:06:40.760Z,97588.88
2022-12-03T20:09:12.268Z,97581.25
2022-12-03T20:11:46.263Z,97593.47
2022-12-03T20:14:21.126Z,97594.38
2022-12-03T20:16:50.009Z,97586.63
2022-12-03T20:19:19.127Z,97588.88
2022-12-03T20:21:48.019Z,97587.81
2022-12-03T20:24:18.169Z,97581.34
2022-12-03T20:26:49.017Z,97581.81
2022-12-03T20:29:18.195Z,97587.94
2022-12-03T20:31:47.169Z,97588.19
2022-12-03T20:34:16.018Z,97585.09
2022-12-03T20:36:45.873Z,97584.31
2022-12-03T20:39:14.612Z,97581.53
2022-12-03T20:41:43.383Z,97583.75
2022-12-03T20:44:14.242Z,97583.31
2022-12-03T20:46:44.053Z,97575.06
2022-12-03T20:49:13.803Z,97572.50
2022-12-03T20:51:42.716Z,97572.63
2022-12-03T20:54:11.742Z,97569.38
2022-12-03T20:56:42.449Z,97571.94
2022-12-03T20:59:15.334Z,97570.94
2022-12-03T21:01:44.571Z,97567.91
2022-12-03T21:04:16.386Z,97573.66
2022-12-03T21:06:45.272Z,97564.81
2022-12-03T21:09:14.026Z,97567.00
2022-12-03T21:11:42.865Z,97563.50
2022-12-03T21:14:12.692Z,97559.75
2022-12-03T21:17:07.384Z,97559.16
2022-12-03T21:19:35.663Z,97554.47
2022-12-03T21:22:05.500Z,97557.03
2022-12-03T21:24:34.482Z,97555.72
2022-12-03T21:27:03.196Z,97558.50
2022-12-03T21:29:32.231Z,97559.59
2022-12-03T21:32:02.301Z,97552.00
2022-12-03T21:34:36.089Z,97557.34
2022-12-03T21:37:07.373Z,97552.53
2022-12-03T21:39:36.170Z,97554.66
2022-12-03T21:42:22.280Z,97551.28
2022-12-03T21:44:55.711Z,97547.25
2022-12-03T21:47:27.491Z,97548.50
2022-12-03T21:49:57.717Z,97544.91
2022-12-03T21:52:26.450Z,97549.25
2022-12-03T21:54:55.218Z,97553.53
2022-12-03T21:57:24.486Z,97557.09
2022-12-03T21:59:53.957Z,97551.16
2022-12-03T22:02:23.061Z,97553.31
2022-12-03T22:04:53.715Z,97546.47
2022-12-03T22:07:24.089Z,97546.56
2022-12-03T22:09:53.165Z,97548.66
2022-12-03T22:12:22.246Z,97552.09
2022-12-03T22:14:50.943Z,97549.13
2022-12-03T22:17:20.167Z,97549.13
2022-12-03T22:19:48.877Z,97549.25
2022-12-03T22:22:18.922Z,97541.25
2022-12-03T22:24:48.402Z,97537.94
2022-12-03T22:27:20.287Z,97540.00
2022-12-03T22:29:49.182Z,97536.28
2022-12-03T22:32:18.307Z,97536.91
2022-12-03T22:34:49.838Z,97536.22
2022-12-03T22:37:20.025Z,97529.44
2022-12-03T22:39:49.323Z,97526.13
2022-12-03T22:42:18.127Z,97531.63
2022-12-03T22:44:49.622Z,97530.38
2022-12-03T22:47:18.682Z,97522.31
2022-12-03T22:49:47.436Z,97515.38
2022-12-03T22:52:17.470Z,97514.22
2022-12-03T22:54:48.128Z,97506.63
2022-12-03T22:57:17.135Z,97512.25
2022-12-03T22:59:45.830Z,97515.66
2022-12-03T23:02:15.702Z,97508.13
2022-12-03T23:05:04.175Z,97508.38
2022-12-03T23:10:21.643Z,97509.91
2022-12-03T23:12:50.633Z,97508.44
2022-12-03T23:15:19.537Z,97504.00
2022-12-03T23:17:51.316Z,97499.53
2022-12-03T23:20:20.434Z,97506.84
2022-12-03T23:22:50.539Z,97504.72
2022-12-03T23:25:21.041Z,97505.81
2022-12-03T23:27:50.138Z,97501.25
2022-12-03T23:30:19.081Z,97498.34
2022-12-03T23:32:47.905Z,97505.63
2022-12-03T23:35:16.641Z,97501.47
2022-12-03T23:37:47.483Z,97509.41
2022-12-03T23:40:17.602Z,97509.84
2022-12-03T23:42:47.728Z,97498.56
2022-12-03T23:45:17.153Z,97504.03
2022-12-03T23:47:47.199Z,97507.88
2022-12-03T23:50:17.457Z,97515.63
2022-12-03T23:52:46.183Z,97502.97
2022-12-03T23:55:14.920Z,97504.28
2022-12-03T23:57:44.631Z,97507.38
